sensor_id;sensor_type;location;lat;lon;timestamp;temperature;humidity
25248;DHT22;13191;47.472;11.214;2024-01-15T00:00:42;-1.40;99.90
25248;DHT22;13191;47.472;11.214;2024-01-15T00:03:08;-1.50;99.90
25248;DHT22;13191;47.472;11.214;2024-01-15T00:05:35;-1.40;99.90
25248;DHT22;13191;47.472;11.214;2024-01-15T00:08:00;-1.50;99.90
25248;DHT22;13191;47.472;11.214;2024-01-15T00:10:26;-1.50;99.90
25248;DHT22;13191;47.472;11.214;2024-01-15T00:12:51;-1.40;99.90
25248;DHT22;13191;47.472;11.214;2024-01-15T00:15:17;-1.40;99.90
25248;DHT22;13191;47.472;11.214;2024-01-15T00:17:42;-1.40;99.90
25248;DHT22;13191;47.472;11.214;2024-01-15T00:20:08;-1.30;99.90
25248;DHT22;13191;47.472;11.214;2024-01-15T00:22:34;-1.30;99.90
25248;DHT22;13191;47.472;11.214;2024-01-15T00:25:01;-1.30;99.90
25248;DHT22;13191;47.472;11.214;2024-01-15T00:27:27;-1.20;99.90
25248;DHT22;13191;47.472;11.214;2024-01-15T00:29:53;-1.20;99.90
25248;DHT22;13191;47.472;11.214;2024-01-15T00:32:19;-1.20;99.90
25248;DHT22;13191;47.472;11.214;2024-01-15T00:34:45;-1.10;99.90
25248;DHT22;13191;47.472;11.214;2024-01-15T00:37:11;-1.10;99.90
25248;DHT22;13191;47.472;11.214;2024-01-15T00:39:36;-1.00;99.90
25248;DHT22;13191;47.472;11.214;2024-01-15T00:42:02;-1.00;99.90
25248;DHT22;13191;47.472;11.214;2024-01-15T00:44:28;-1.00;99.90
25248;DHT22;13191;47.472;11.214;2024-01-15T00:46:53;-1.00;99.90
25248;DHT22;13191;47.472;11.214;2024-01-15T00:49:19;-0.90;99.90
25248;DHT22;13191;47.472;11.214;2024-01-15T00:51:44;-0.80;99.90
25248;DHT22;13191;47.472;11.214;2024-01-15T00:54:10;-0.80;99.90
25248;DHT22;13191;47.472;11.214;2024-01-15T00:56:36;-0.70;99.90
25248;DHT22;13191;47.472;11.214;2024-01-15T00:59:02;-0.70;99.90
25248;DHT22;13191;47.472;11.214;2024-01-15T01:01:28;-0.70;99.90
25248;DHT22;13191;47.472;11.214;2024-01-15T01:03:54;-0.60;99.90
25248;DHT22;13191;47.472;11.214;2024-01-15T01:06:19;-0.70;99.90
25248;DHT22;13191;47.472;11.214;2024-01-15T01:08:45;-0.50;99.90
25248;DHT22;13191;47.472;11.214;2024-01-15T01:11:14;-0.50;99.90
25248;DHT22;13191;47.472;11.214;2024-01-15T01:13:40;-0.50;99.90
25248;DHT22;13191;47.472;11.214;2024-01-15T01:16:05;-0.50;99.90
25248;DHT22;13191;47.472;11.214;2024-01-15T01:18:31;-0.30;99.90
25248;DHT22;13191;47.472;11.214;2024-01-15T01:20:56;-0.40;99.90
25248;DHT22;13191;47.472;11.214;2024-01-15T01:23:22;-0.30;99.90
25248;DHT22;13191;47.472;11.214;2024-01-15T01:25:56;-0.30;99.90
25248;DHT22;13191;47.472;11.214;2024-01-15T01:28:22;-0.30;99.90
25248;DHT22;13191;47.472;11.214;2024-01-15T01:30:47;-0.20;99.90
25248;DHT22;13191;47.472;11.214;2024-01-15T01:33:13;-0.20;99.90
25248;DHT22;13191;47.472;11.214;2024-01-15T01:35:39;-0.10;99.90
25248;DHT22;13191;47.472;11.214;2024-01-15T01:38:04;-0.10;99.90
25248;DHT22;13191;47.472;11.214;2024-01-15T01:40:30;-0.10;99.90
25248;DHT22;13191;47.472;11.214;2024-01-15T01:42:55;0.00;99.90
25248;DHT22;13191;47.472;11.214;2024-01-15T01:45:21;-0.10;99.90
25248;DHT22;13191;47.472;11.214;2024-01-15T01:47:46;-0.10;99.90
25248;DHT22;13191;47.472;11.214;2024-01-15T01:50:13;-0.10;99.90
25248;DHT22;13191;47.472;11.214;2024-01-15T01:52:39;0.00;99.90
25248;DHT22;13191;47.472;11.214;2024-01-15T01:55:06;0.00;99.90
25248;DHT22;13191;47.472;11.214;2024-01-15T01:57:32;0.10;99.90
25248;DHT22;13191;47.472;11.214;2024-01-15T02:00:00;0.10;99.90
25248;DHT22;13191;47.472;11.214;2024-01-15T02:02:25;0.20;99.90
25248;DHT22;13191;47.472;11.214;2024-01-15T02:04:51;0.20;99.90
25248;DHT22;13191;47.472;11.214;2024-01-15T02:07:17;0.20;99.90
25248;DHT22;13191;47.472;11.214;2024-01-15T02:09:44;0.30;99.90
25248;DHT22;13191;47.472;11.214;2024-01-15T02:12:10;0.30;99.90
25248;DHT22;13191;47.472;11.214;2024-01-15T02:14:36;0.40;99.90
25248;DHT22;13191;47.472;11.214;2024-01-15T02:17:01;0.40;99.90
25248;DHT22;13191;47.472;11.214;2024-01-15T02:19:27;0.40;99.90
25248;DHT22;13191;47.472;11.214;2024-01-15T02:21:52;0.40;99.90
25248;DHT22;13191;47.472;11.214;2024-01-15T02:24:18;0.40;99.90
25248;DHT22;13191;47.472;11.214;2024-01-15T02:26:44;0.40;99.90
25248;DHT22;13191;47.472;11.214;2024-01-15T02:29:10;0.50;99.90
25248;DHT22;13191;47.472;11.214;2024-01-15T02:31:36;0.50;99.90
25248;DHT22;13191;47.472;11.214;2024-01-15T02:34:02;0.50;99.90
25248;DHT22;13191;47.472;11.214;2024-01-15T02:36:27;0.50;99.90
25248;DHT22;13191;47.472;11.214;2024-01-15T02:38:53;0.50;99.90
25248;DHT22;13191;47.472;11.214;2024-01-15T02:41:18;0.50;99.90
25248;DHT22;13191;47.472;11.214;2024-01-15T02:43:44;0.50;99.90
25248;DHT22;13191;47.472;11.214;2024-01-15T02:46:10;0.60;99.90
25248;DHT22;13191;47.472;11.214;2024-01-15T02:48:35;0.60;99.90
25248;DHT22;13191;47.472;11.214;2024-01-15T02:51:01;0.60;99.90
25248;DHT22;13191;47.472;11.214;2024-01-15T02:53:27;0.60;99.90
25248;DHT22;13191;47.472;11.214;2024-01-15T02:55:53;0.60;99.90
25248;DHT22;13191;47.472;11.214;2024-01-15T02:58:18;0.60;99.90
25248;DHT22;13191;47.472;11.214;2024-01-15T03:00:44;0.70;99.90
25248;DHT22;13191;47.472;11.214;2024-01-15T03:03:09;0.70;99.90
25248;DHT22;13191;47.472;11.214;2024-01-15T03:05:35;0.70;99.90
25248;DHT22;13191;47.472;11.214;2024-01-15T03:08:00;0.70;99.90
25248;DHT22;13191;47.472;11.214;2024-01-15T03:10:26;0.70;99.90
25248;DHT22;13191;47.472;11.214;2024-01-15T03:12:53;0.70;99.90
25248;DHT22;13191;47.472;11.214;2024-01-15T03:15:19;0.80;99.90
25248;DHT22;13191;47.472;11.214;2024-01-15T03:17:45;0.80;99.90
25248;DHT22;13191;47.472;11.214;2024-01-15T03:20:11;0.80;99.90
25248;DHT22;13191;47.472;11.214;2024-01-15T03:22:36;0.80;99.90
25248;DHT22;13191;47.472;11.214;2024-01-15T03:25:03;0.80;99.90
25248;DHT22;13191;47.472;11.214;2024-01-15T03:27:29;0.80;99.90
25248;DHT22;13191;47.472;11.214;2024-01-15T03:29:54;0.80;99.90
25248;DHT22;13191;47.472;11.214;2024-01-15T03:32:20;0.90;99.90
25248;DHT22;13191;47.472;11.214;2024-01-15T03:34:45;0.90;99.90
25248;DHT22;13191;47.472;11.214;2024-01-15T03:37:13;0.90;99.90
25248;DHT22;13191;47.472;11.214;2024-01-15T03:39:38;0.90;99.90
25248;DHT22;13191;47.472;11.214;2024-01-15T03:42:04;0.90;99.90
25248;DHT22;13191;47.472;11.214;2024-01-15T03:44:29;0.90;99.90
25248;DHT22;13191;47.472;11.214;2024-01-15T03:46:55;1.00;99.90
25248;DHT22;13191;47.472;11.214;2024-01-15T03:49:21;1.00;99.90
25248;DHT22;13191;47.472;11.214;2024-01-15T03:51:46;1.00;99.90
25248;DHT22;13191;47.472;11.214;2024-01-15T03:54:12;1.00;99.90
25248;DHT22;13191;47.472;11.214;2024-01-15T03:56:37;1.00;99.90
25248;DHT22;13191;47.472;11.214;2024-01-15T03:59:03;1.00;99.90
25248;DHT22;13191;47.472;11.214;2024-01-15T04:01:28;1.10;99.90
25248;DHT22;13191;47.472;11.214;2024-01-15T04:03:55;1.10;99.90
25248;DHT22;13191;47.472;11.214;2024-01-15T04:06:20;1.00;99.90
25248;DHT22;13191;47.472;11.214;2024-01-15T04:08:46;1.10;99.90
25248;DHT22;13191;47.472;11.214;2024-01-15T04:11:11;1.10;99.90
25248;DHT22;13191;47.472;11.214;2024-01-15T04:13:37;1.10;99.90
25248;DHT22;13191;47.472;11.214;2024-01-15T04:16:02;1.10;99.90
25248;DHT22;13191;47.472;11.214;2024-01-15T04:18:28;1.20;99.90
25248;DHT22;13191;47.472;11.214;2024-01-15T04:20:54;1.20;99.90
25248;DHT22;13191;47.472;11.214;2024-01-15T04:23:20;1.20;99.90
25248;DHT22;13191;47.472;11.214;2024-01-15T04:25:45;1.20;99.90
25248;DHT22;13191;47.472;11.214;2024-01-15T04:28:11;1.20;99.90
25248;DHT22;13191;47.472;11.214;2024-01-15T04:30:37;1.20;99.90
25248;DHT22;13191;47.472;11.214;2024-01-15T04:33:03;1.30;99.90
25248;DHT22;13191;47.472;11.214;2024-01-15T04:35:28;1.30;99.90
25248;DHT22;13191;47.472;11.214;2024-01-15T04:37:54;1.30;99.90
25248;DHT22;13191;47.472;11.214;2024-01-15T04:40:19;1.30;99.90
25248;DHT22;13191;47.472;11.214;2024-01-15T04:42:45;1.30;99.90
25248;DHT22;13191;47.472;11.214;2024-01-15T04:45:11;1.40;99.90
25248;DHT22;13191;47.472;11.214;2024-01-15T04:47:37;1.40;99.90
25248;DHT22;13191;47.472;11.214;2024-01-15T04:50:04;1.40;99.90
25248;DHT22;13191;47.472;11.214;2024-01-15T04:52:29;1.40;99.90
25248;DHT22;13191;47.472;11.214;2024-01-15T04:54:55;1.50;99.90
25248;DHT22;13191;47.472;11.214;2024-01-15T04:57:20;1.50;99.90
25248;DHT22;13191;47.472;11.214;2024-01-15T04:59:46;1.50;99.90
25248;DHT22;13191;47.472;11.214;2024-01-15T05:02:11;1.60;99.90
25248;DHT22;13191;47.472;11.214;2024-01-15T05:04:37;1.60;99.90
25248;DHT22;13191;47.472;11.214;2024-01-15T05:07:03;1.60;99.90
25248;DHT22;13191;47.472;11.214;2024-01-15T05:09:28;1.70;99.90
25248;DHT22;13191;47.472;11.214;2024-01-15T05:11:54;1.70;99.90
25248;DHT22;13191;47.472;11.214;2024-01-15T05:14:19;1.70;99.90
25248;DHT22;13191;47.472;11.214;2024-01-15T05:16:49;1.80;99.90
25248;DHT22;13191;47.472;11.214;2024-01-15T05:19:15;1.80;99.90
25248;DHT22;13191;47.472;11.214;2024-01-15T05:21:40;1.90;99.90
25248;DHT22;13191;47.472;11.214;2024-01-15T05:24:06;1.90;99.90
25248;DHT22;13191;47.472;11.214;2024-01-15T05:26:31;2.00;99.90
25248;DHT22;13191;47.472;11.214;2024-01-15T05:28:57;2.00;99.90
25248;DHT22;13191;47.472;11.214;2024-01-15T05:31:22;2.00;99.90
25248;DHT22;13191;47.472;11.214;2024-01-15T05:33:48;2.00;99.90
25248;DHT22;13191;47.472;11.214;2024-01-15T05:36:13;2.00;99.90
25248;DHT22;13191;47.472;11.214;2024-01-15T05:38:39;2.10;99.90
25248;DHT22;13191;47.472;11.214;2024-01-15T05:41:05;2.10;99.90
25248;DHT22;13191;47.472;11.214;2024-01-15T05:43:31;2.20;99.90
25248;DHT22;13191;47.472;11.214;2024-01-15T05:45:57;2.20;99.90
25248;DHT22;13191;47.472;11.214;2024-01-15T05:48:22;2.20;99.90
25248;DHT22;13191;47.472;11.214;2024-01-15T05:50:48;2.20;99.90
25248;DHT22;13191;47.472;11.214;2024-01-15T05:53:13;2.20;99.90
25248;DHT22;13191;47.472;11.214;2024-01-15T05:55:40;2.20;99.90
25248;DHT22;13191;47.472;11.214;2024-01-15T05:58:05;2.20;99.90
25248;DHT22;13191;47.472;11.214;2024-01-15T06:00:31;2.20;99.90
25248;DHT22;13191;47.472;11.214;2024-01-15T06:02:58;2.20;99.90
25248;DHT22;13191;47.472;11.214;2024-01-15T06:05:24;2.20;99.90
25248;DHT22;13191;47.472;11.214;2024-01-15T06:07:50;2.20;99.90
25248;DHT22;13191;47.472;11.214;2024-01-15T06:10:15;2.20;99.90
25248;DHT22;13191;47.472;11.214;2024-01-15T06:12:43;2.10;99.90
25248;DHT22;13191;47.472;11.214;2024-01-15T06:15:09;2.20;99.90
25248;DHT22;13191;47.472;11.214;2024-01-15T06:17:34;2.20;99.90
25248;DHT22;13191;47.472;11.214;2024-01-15T06:20:00;2.20;99.90
25248;DHT22;13191;47.472;11.214;2024-01-15T06:22:25;2.20;99.90
25248;DHT22;13191;47.472;11.214;2024-01-15T06:24:51;2.20;99.90
25248;DHT22;13191;47.472;11.214;2024-01-15T06:27:16;2.20;99.90
25248;DHT22;13191;47.472;11.214;2024-01-15T06:29:45;2.30;99.90
25248;DHT22;13191;47.472;11.214;2024-01-15T06:32:12;2.30;99.90
25248;DHT22;13191;47.472;11.214;2024-01-15T06:34:38;2.30;99.90
25248;DHT22;13191;47.472;11.214;2024-01-15T06:37:04;2.20;99.90
25248;DHT22;13191;47.472;11.214;2024-01-15T06:39:30;2.30;99.90
25248;DHT22;13191;47.472;11.214;2024-01-15T06:41:55;2.30;99.90
25248;DHT22;13191;47.472;11.214;2024-01-15T06:44:21;2.30;99.90
25248;DHT22;13191;47.472;11.214;2024-01-15T06:46:47;2.30;99.90
25248;DHT22;13191;47.472;11.214;2024-01-15T06:49:13;2.30;99.90
25248;DHT22;13191;47.472;11.214;2024-01-15T06:51:39;2.20;99.90
25248;DHT22;13191;47.472;11.214;2024-01-15T06:54:04;2.30;99.90
25248;DHT22;13191;47.472;11.214;2024-01-15T06:56:31;2.30;99.90
25248;DHT22;13191;47.472;11.214;2024-01-15T06:58:57;2.30;99.90
25248;DHT22;13191;47.472;11.214;2024-01-15T07:01:22;2.20;99.90
25248;DHT22;13191;47.472;11.214;2024-01-15T07:03:48;2.30;99.90
25248;DHT22;13191;47.472;11.214;2024-01-15T07:06:13;2.30;99.90
25248;DHT22;13191;47.472;11.214;2024-01-15T07:08:40;2.30;99.90
25248;DHT22;13191;47.472;11.214;2024-01-15T07:11:06;2.30;99.90
25248;DHT22;13191;47.472;11.214;2024-01-15T07:13:32;2.30;99.90
25248;DHT22;13191;47.472;11.214;2024-01-15T07:15:58;2.30;99.90
25248;DHT22;13191;47.472;11.214;2024-01-15T07:18:23;2.30;99.90
25248;DHT22;13191;47.472;11.214;2024-01-15T07:20:49;2.30;99.90
25248;DHT22;13191;47.472;11.214;2024-01-15T07:23:15;2.30;99.90
25248;DHT22;13191;47.472;11.214;2024-01-15T07:25:40;2.30;99.90
25248;DHT22;13191;47.472;11.214;2024-01-15T07:28:06;2.30;99.90
25248;DHT22;13191;47.472;11.214;2024-01-15T07:30:31;2.30;99.90
25248;DHT22;13191;47.472;11.214;2024-01-15T07:32:57;2.30;99.90
25248;DHT22;13191;47.472;11.214;2024-01-15T07:35:23;2.30;99.90
25248;DHT22;13191;47.472;11.214;2024-01-15T07:37:48;2.30;99.90
25248;DHT22;13191;47.472;11.214;2024-01-15T07:40:14;2.30;99.90
25248;DHT22;13191;47.472;11.214;2024-01-15T07:42:40;2.30;99.90
25248;DHT22;13191;47.472;11.214;2024-01-15T07:45:08;2.30;99.90
25248;DHT22;13191;47.472;11.214;2024-01-15T07:47:33;2.30;99.90
25248;DHT22;13191;47.472;11.214;2024-01-15T07:49:59;2.30;99.90
25248;DHT22;13191;47.472;11.214;2024-01-15T07:52:24;2.30;99.90
25248;DHT22;13191;47.472;11.214;2024-01-15T07:54:50;2.30;99.90
25248;DHT22;13191;47.472;11.214;2024-01-15T07:57:16;2.30;99.90
25248;DHT22;13191;47.472;11.214;2024-01-15T07:59:41;2.30;99.90
25248;DHT22;13191;47.472;11.214;2024-01-15T08:02:07;2.30;99.90
25248;DHT22;13191;47.472;11.214;2024-01-15T08:04:32;2.30;99.90
25248;DHT22;13191;47.472;11.214;2024-01-15T08:06:58;2.30;99.90
25248;DHT22;13191;47.472;11.214;2024-01-15T08:09:23;2.30;99.90
25248;DHT22;13191;47.472;11.214;2024-01-15T08:11:49;2.30;99.90
25248;DHT22;13191;47.472;11.214;2024-01-15T08:14:14;2.30;99.90
25248;DHT22;13191;47.472;11.214;2024-01-15T08:16:40;2.30;99.90
25248;DHT22;13191;47.472;11.214;2024-01-15T08:19:06;2.30;99.90
25248;DHT22;13191;47.472;11.214;2024-01-15T08:21:32;2.30;99.90
25248;DHT22;13191;47.472;11.214;2024-01-15T08:23:59;2.30;99.90
25248;DHT22;13191;47.472;11.214;2024-01-15T08:26:25;2.30;99.90
25248;DHT22;13191;47.472;11.214;2024-01-15T08:28:51;2.30;99.90
25248;DHT22;13191;47.472;11.214;2024-01-15T08:31:16;2.30;99.90
25248;DHT22;13191;47.472;11.214;2024-01-15T08:33:42;2.30;99.90
25248;DHT22;13191;47.472;11.214;2024-01-15T08:36:09;2.30;99.90
25248;DHT22;13191;47.472;11.214;2024-01-15T08:38:35;2.30;99.90
25248;DHT22;13191;47.472;11.214;2024-01-15T08:41:00;2.30;99.90
25248;DHT22;13191;47.472;11.214;2024-01-15T08:43:26;2.30;99.90
25248;DHT22;13191;47.472;11.214;2024-01-15T08:45:52;2.30;99.90
25248;DHT22;13191;47.472;11.214;2024-01-15T08:48:18;2.30;99.90
25248;DHT22;13191;47.472;11.214;2024-01-15T08:50:44;2.30;99.90
25248;DHT22;13191;47.472;11.214;2024-01-15T08:53:12;2.30;99.90
25248;DHT22;13191;47.472;11.214;2024-01-15T08:55:38;2.30;99.90
25248;DHT22;13191;47.472;11.214;2024-01-15T08:58:04;2.40;99.90
25248;DHT22;13191;47.472;11.214;2024-01-15T09:00:30;2.40;99.90
25248;DHT22;13191;47.472;11.214;2024-01-15T09:02:56;2.40;99.90
25248;DHT22;13191;47.472;11.214;2024-01-15T09:05:22;2.40;99.90
25248;DHT22;13191;47.472;11.214;2024-01-15T09:07:47;2.40;99.90
25248;DHT22;13191;47.472;11.214;2024-01-15T09:10:14;2.50;99.90
25248;DHT22;13191;47.472;11.214;2024-01-15T09:12:39;2.50;99.90
25248;DHT22;13191;47.472;11.214;2024-01-15T09:15:05;2.60;99.90
25248;DHT22;13191;47.472;11.214;2024-01-15T09:17:34;2.60;99.90
25248;DHT22;13191;47.472;11.214;2024-01-15T09:20:00;2.60;99.90
25248;DHT22;13191;47.472;11.214;2024-01-15T09:22:25;2.70;99.90
25248;DHT22;13191;47.472;11.214;2024-01-15T09:24:52;2.70;99.90
25248;DHT22;13191;47.472;11.214;2024-01-15T09:27:17;2.70;99.90
25248;DHT22;13191;47.472;11.214;2024-01-15T09:29:43;2.70;99.90
25248;DHT22;13191;47.472;11.214;2024-01-15T09:32:11;2.70;99.90
25248;DHT22;13191;47.472;11.214;2024-01-15T09:34:37;2.80;99.90
25248;DHT22;13191;47.472;11.214;2024-01-15T09:37:03;2.80;99.90
25248;DHT22;13191;47.472;11.214;2024-01-15T09:39:29;2.90;99.90
25248;DHT22;13191;47.472;11.214;2024-01-15T09:41:56;2.90;99.90
25248;DHT22;13191;47.472;11.214;2024-01-15T09:44:21;2.80;99.90
25248;DHT22;13191;47.472;11.214;2024-01-15T09:46:48;2.90;99.90
25248;DHT22;13191;47.472;11.214;2024-01-15T09:49:16;2.90;99.90
25248;DHT22;13191;47.472;11.214;2024-01-15T09:51:42;3.00;99.90
25248;DHT22;13191;47.472;11.214;2024-01-15T09:54:08;3.00;99.90
25248;DHT22;13191;47.472;11.214;2024-01-15T09:56:34;3.10;99.90
25248;DHT22;13191;47.472;11.214;2024-01-15T09:59:01;3.10;99.90
25248;DHT22;13191;47.472;11.214;2024-01-15T10:01:26;3.20;99.90
25248;DHT22;13191;47.472;11.214;2024-01-15T10:03:57;3.20;99.90
25248;DHT22;13191;47.472;11.214;2024-01-15T10:06:26;3.20;99.90
25248;DHT22;13191;47.472;11.214;2024-01-15T10:08:53;3.20;99.90
25248;DHT22;13191;47.472;11.214;2024-01-15T10:11:19;3.30;99.90
25248;DHT22;13191;47.472;11.214;2024-01-15T10:13:46;3.30;99.90
25248;DHT22;13191;47.472;11.214;2024-01-15T10:16:11;3.30;99.90
25248;DHT22;13191;47.472;11.214;2024-01-15T10:18:37;3.40;99.90
25248;DHT22;13191;47.472;11.214;2024-01-15T10:21:06;3.40;99.90
25248;DHT22;13191;47.472;11.214;2024-01-15T10:23:34;3.40;99.90
25248;DHT22;13191;47.472;11.214;2024-01-15T10:26:01;3.40;99.90
25248;DHT22;13191;47.472;11.214;2024-01-15T10:28:27;3.50;99.90
25248;DHT22;13191;47.472;11.214;2024-01-15T10:30:57;3.50;99.90
25248;DHT22;13191;47.472;11.214;2024-01-15T10:33:23;3.60;99.90
25248;DHT22;13191;47.472;11.214;2024-01-15T10:36:00;3.60;99.90
25248;DHT22;13191;47.472;11.214;2024-01-15T10:38:26;3.60;99.90
25248;DHT22;13191;47.472;11.214;2024-01-15T10:40:55;3.70;99.90
25248;DHT22;13191;47.472;11.214;2024-01-15T10:43:21;3.70;99.90
25248;DHT22;13191;47.472;11.214;2024-01-15T10:45:48;3.70;99.90
25248;DHT22;13191;47.472;11.214;2024-01-15T10:48:17;3.70;99.90
25248;DHT22;13191;47.472;11.214;2024-01-15T10:50:44;3.80;99.90
25248;DHT22;13191;47.472;11.214;2024-01-15T10:53:11;3.80;99.90
25248;DHT22;13191;47.472;11.214;2024-01-15T10:55:38;3.80;99.90
25248;DHT22;13191;47.472;11.214;2024-01-15T10:58:05;3.80;99.90
25248;DHT22;13191;47.472;11.214;2024-01-15T11:00:33;3.80;99.90
25248;DHT22;13191;47.472;11.214;2024-01-15T11:03:01;3.80;99.90
25248;DHT22;13191;47.472;11.214;2024-01-15T11:05:27;3.80;99.90
25248;DHT22;13191;47.472;11.214;2024-01-15T11:07:58;3.90;99.90
25248;DHT22;13191;47.472;11.214;2024-01-15T11:10:48;3.90;99.90
25248;DHT22;13191;47.472;11.214;2024-01-15T11:13:39;3.90;99.90
25248;DHT22;13191;47.472;11.214;2024-01-15T11:16:10;4.00;99.90
25248;DHT22;13191;47.472;11.214;2024-01-15T11:18:37;4.00;99.90
25248;DHT22;13191;47.472;11.214;2024-01-15T11:23:46;3.90;99.90
25248;DHT22;13191;47.472;11.214;2024-01-15T11:26:32;3.90;99.90
25248;DHT22;13191;47.472;11.214;2024-01-15T11:28:59;4.00;99.90
25248;DHT22;13191;47.472;11.214;2024-01-15T11:31:27;4.00;99.90
25248;DHT22;13191;47.472;11.214;2024-01-15T11:33:53;4.00;99.90
25248;DHT22;13191;47.472;11.214;2024-01-15T11:36:21;4.00;99.90
25248;DHT22;13191;47.472;11.214;2024-01-15T11:38:46;4.00;99.90
25248;DHT22;13191;47.472;11.214;2024-01-15T11:41:15;4.00;99.90
25248;DHT22;13191;47.472;11.214;2024-01-15T11:43:43;4.00;99.90
25248;DHT22;13191;47.472;11.214;2024-01-15T11:46:11;4.00;99.90
25248;DHT22;13191;47.472;11.214;2024-01-15T11:48:43;4.00;99.90
25248;DHT22;13191;47.472;11.214;2024-01-15T11:51:11;4.10;99.90
25248;DHT22;13191;47.472;11.214;2024-01-15T11:53:45;4.10;99.90
25248;DHT22;13191;47.472;11.214;2024-01-15T11:56:17;4.00;99.90
25248;DHT22;13191;47.472;11.214;2024-01-15T11:58:44;4.10;99.90
25248;DHT22;13191;47.472;11.214;2024-01-15T12:01:13;4.10;99.90
25248;DHT22;13191;47.472;11.214;2024-01-15T12:03:39;4.10;99.90
25248;DHT22;13191;47.472;11.214;2024-01-15T12:06:09;4.10;99.90
25248;DHT22;13191;47.472;11.214;2024-01-15T12:08:35;4.00;99.90
25248;DHT22;13191;47.472;11.214;2024-01-15T12:11:07;4.00;99.90
25248;DHT22;13191;47.472;11.214;2024-01-15T12:13:35;3.90;99.90
25248;DHT22;13191;47.472;11.214;2024-01-15T12:16:01;3.90;99.90
25248;DHT22;13191;47.472;11.214;2024-01-15T12:18:29;3.90;99.90
25248;DHT22;13191;47.472;11.214;2024-01-15T12:20:54;3.80;99.90
25248;DHT22;13191;47.472;11.214;2024-01-15T12:23:20;3.70;99.90
25248;DHT22;13191;47.472;11.214;2024-01-15T12:25:46;3.70;99.90
25248;DHT22;13191;47.472;11.214;2024-01-15T12:28:12;3.70;99.90
25248;DHT22;13191;47.472;11.214;2024-01-15T12:30:39;3.70;99.90
25248;DHT22;13191;47.472;11.214;2024-01-15T12:33:05;3.60;99.90
25248;DHT22;13191;47.472;11.214;2024-01-15T12:35:31;3.50;99.90
25248;DHT22;13191;47.472;11.214;2024-01-15T12:37:56;3.50;99.90
25248;DHT22;13191;47.472;11.214;2024-01-15T12:40:23;3.50;99.90
25248;DHT22;13191;47.472;11.214;2024-01-15T12:42:49;3.50;99.90
25248;DHT22;13191;47.472;11.214;2024-01-15T12:45:14;3.50;99.90
25248;DHT22;13191;47.472;11.214;2024-01-15T12:47:41;3.50;99.90
25248;DHT22;13191;47.472;11.214;2024-01-15T12:50:11;3.50;99.90
25248;DHT22;13191;47.472;11.214;2024-01-15T12:52:39;3.50;99.90
25248;DHT22;13191;47.472;11.214;2024-01-15T12:55:06;3.50;99.90
25248;DHT22;13191;47.472;11.214;2024-01-15T12:57:32;3.50;99.90
25248;DHT22;13191;47.472;11.214;2024-01-15T12:59:58;3.40;99.90
25248;DHT22;13191;47.472;11.214;2024-01-15T13:02:23;3.50;99.90
25248;DHT22;13191;47.472;11.214;2024-01-15T13:04:49;3.50;99.90
25248;DHT22;13191;47.472;11.214;2024-01-15T13:07:15;3.50;99.90
25248;DHT22;13191;47.472;11.214;2024-01-15T13:09:40;3.40;99.90
25248;DHT22;13191;47.472;11.214;2024-01-15T13:12:06;3.50;99.90
25248;DHT22;13191;47.472;11.214;2024-01-15T13:14:32;3.50;99.90
25248;DHT22;13191;47.472;11.214;2024-01-15T13:16:58;3.50;99.90
25248;DHT22;13191;47.472;11.214;2024-01-15T13:19:24;3.50;99.90
25248;DHT22;13191;47.472;11.214;2024-01-15T13:21:50;3.40;99.90
25248;DHT22;13191;47.472;11.214;2024-01-15T13:24:17;3.40;99.90
25248;DHT22;13191;47.472;11.214;2024-01-15T13:26:42;3.40;99.90
25248;DHT22;13191;47.472;11.214;2024-01-15T13:29:08;3.40;99.90
25248;DHT22;13191;47.472;11.214;2024-01-15T13:31:34;3.40;99.90
25248;DHT22;13191;47.472;11.214;2024-01-15T13:34:00;3.40;99.90
25248;DHT22;13191;47.472;11.214;2024-01-15T13:36:28;3.40;99.90
25248;DHT22;13191;47.472;11.214;2024-01-15T13:38:54;3.40;99.90
25248;DHT22;13191;47.472;11.214;2024-01-15T13:41:20;3.40;99.90
25248;DHT22;13191;47.472;11.214;2024-01-15T13:43:54;3.40;99.90
25248;DHT22;13191;47.472;11.214;2024-01-15T13:46:26;3.40;99.90
25248;DHT22;13191;47.472;11.214;2024-01-15T13:48:55;3.40;99.90
25248;DHT22;13191;47.472;11.214;2024-01-15T13:51:23;3.40;99.90
25248;DHT22;13191;47.472;11.214;2024-01-15T13:53:50;3.40;99.90
25248;DHT22;13191;47.472;11.214;2024-01-15T13:56:16;3.40;99.90
25248;DHT22;13191;47.472;11.214;2024-01-15T13:58:42;3.40;99.90
25248;DHT22;13191;47.472;11.214;2024-01-15T14:01:08;3.50;99.90
25248;DHT22;13191;47.472;11.214;2024-01-15T14:03:33;3.50;99.90
25248;DHT22;13191;47.472;11.214;2024-01-15T14:06:00;3.40;99.90
25248;DHT22;13191;47.472;11.214;2024-01-15T14:08:25;3.40;99.90
25248;DHT22;13191;47.472;11.214;2024-01-15T14:10:51;3.40;99.90
25248;DHT22;13191;47.472;11.214;2024-01-15T14:13:17;3.40;99.90
25248;DHT22;13191;47.472;11.214;2024-01-15T14:15:42;3.30;99.90
25248;DHT22;13191;47.472;11.214;2024-01-15T14:18:08;3.30;99.90
25248;DHT22;13191;47.472;11.214;2024-01-15T14:20:33;3.40;99.90
25248;DHT22;13191;47.472;11.214;2024-01-15T14:22:59;3.40;99.90
25248;DHT22;13191;47.472;11.214;2024-01-15T14:25:24;3.30;99.90
25248;DHT22;13191;47.472;11.214;2024-01-15T14:27:50;3.30;99.90
25248;DHT22;13191;47.472;11.214;2024-01-15T14:30:16;3.30;99.90
25248;DHT22;13191;47.472;11.214;2024-01-15T14:32:42;3.30;99.90
25248;DHT22;13191;47.472;11.214;2024-01-15T14:35:08;3.30;99.90
25248;DHT22;13191;47.472;11.214;2024-01-15T14:37:36;3.10;99.90
25248;DHT22;13191;47.472;11.214;2024-01-15T14:40:02;3.20;99.90
25248;DHT22;13191;47.472;11.214;2024-01-15T14:42:29;3.20;99.90
25248;DHT22;13191;47.472;11.214;2024-01-15T14:44:55;3.10;99.90
25248;DHT22;13191;47.472;11.214;2024-01-15T14:47:20;3.10;99.90
25248;DHT22;13191;47.472;11.214;2024-01-15T14:49:49;3.10;99.90
25248;DHT22;13191;47.472;11.214;2024-01-15T14:52:15;3.10;99.90
25248;DHT22;13191;47.472;11.214;2024-01-15T14:54:40;3.10;99.90
25248;DHT22;13191;47.472;11.214;2024-01-15T14:57:06;3.10;99.90
25248;DHT22;13191;47.472;11.214;2024-01-15T14:59:32;3.00;99.90
25248;DHT22;13191;47.472;11.214;2024-01-15T15:01:58;3.00;99.90
25248;DHT22;13191;47.472;11.214;2024-01-15T15:04:23;3.00;99.90
25248;DHT22;13191;47.472;11.214;2024-01-15T15:06:49;3.00;99.90
25248;DHT22;13191;47.472;11.214;2024-01-15T15:09:15;3.00;99.90
25248;DHT22;13191;47.472;11.214;2024-01-15T15:11:41;2.90;99.90
25248;DHT22;13191;47.472;11.214;2024-01-15T15:14:06;2.90;99.90
25248;DHT22;13191;47.472;11.214;2024-01-15T15:16:32;2.90;99.90
25248;DHT22;13191;47.472;11.214;2024-01-15T15:18:58;2.90;99.90
25248;DHT22;13191;47.472;11.214;2024-01-15T15:21:23;2.90;99.90
25248;DHT22;13191;47.472;11.214;2024-01-15T15:23:49;2.90;99.90
25248;DHT22;13191;47.472;11.214;2024-01-15T15:26:14;2.90;99.90